sensor_id;sensor_type;location;lat;lon;timestamp;P1;durP1;ratioP1;P2;durP2;ratioP2
80411;SDS011;69749;42.684;23.360;2023-11-19T00:00:24;3.22;;;2.70;;
80411;SDS011;69749;42.684;23.360;2023-11-19T00:02:50;2.88;;;2.50;;
80411;SDS011;69749;42.684;23.360;2023-11-19T00:05:15;3.20;;;2.90;;
80411;SDS011;69749;42.684;23.360;2023-11-19T00:07:41;2.58;;;2.38;;
80411;SDS011;69749;42.684;23.360;2023-11-19T00:10:08;2.75;;;2.40;;
80411;SDS011;69749;42.684;23.360;2023-11-19T00:12:41;3.17;;;2.88;;
80411;SDS011;69749;42.684;23.360;2023-11-19T00:15:07;3.33;;;3.03;;
80411;SDS011;69749;42.684;23.360;2023-11-19T00:17:42;2.75;;;2.53;;
80411;SDS011;69749;42.684;23.360;2023-11-19T00:20:16;3.17;;;2.90;;
80411;SDS011;69749;42.684;23.360;2023-11-19T00:22:43;3.15;;;2.47;;
80411;SDS011;69749;42.684;23.360;2023-11-19T00:25:09;3.45;;;2.85;;
80411;SDS011;69749;42.684;23.360;2023-11-19T00:27:35;2.90;;;2.35;;
80411;SDS011;69749;42.684;23.360;2023-11-19T00:30:02;4.40;;;2.53;;
80411;SDS011;69749;42.684;23.360;2023-11-19T00:34:55;2.80;;;2.60;;
80411;SDS011;69749;42.684;23.360;2023-11-19T00:37:21;3.40;;;3.10;;
80411;SDS011;69749;42.684;23.360;2023-11-19T00:39:46;3.30;;;3.00;;
80411;SDS011;69749;42.684;23.360;2023-11-19T00:42:12;2.65;;;2.42;;
80411;SDS011;69749;42.684;23.360;2023-11-19T00:44:37;3.50;;;3.17;;
80411;SDS011;69749;42.684;23.360;2023-11-19T00:47:03;3.40;;;2.97;;
80411;SDS011;69749;42.684;23.360;2023-11-19T00:49:28;2.70;;;2.40;;
80411;SDS011;69749;42.684;23.360;2023-11-19T00:51:54;2.80;;;2.45;;
80411;SDS011;69749;42.684;23.360;2023-11-19T00:54:19;3.45;;;3.05;;
80411;SDS011;69749;42.684;23.360;2023-11-19T00:56:45;3.78;;;3.00;;
80411;SDS011;69749;42.684;23.360;2023-11-19T00:59:10;3.08;;;2.40;;
80411;SDS011;69749;42.684;23.360;2023-11-19T01:01:36;2.70;;;2.50;;
80411;SDS011;69749;42.684;23.360;2023-11-19T01:04:01;4.32;;;2.85;;
80411;SDS011;69749;42.684;23.360;2023-11-19T01:06:28;3.30;;;2.85;;
80411;SDS011;69749;42.684;23.360;2023-11-19T01:08:56;2.95;;;2.72;;
80411;SDS011;69749;42.684;23.360;2023-11-19T01:11:22;3.33;;;3.03;;
80411;SDS011;69749;42.684;23.360;2023-11-19T01:13:48;3.40;;;2.70;;
80411;SDS011;69749;42.684;23.360;2023-11-19T01:16:15;4.28;;;2.75;;
80411;SDS011;69749;42.684;23.360;2023-11-19T01:18:40;2.67;;;2.40;;
80411;SDS011;69749;42.684;23.360;2023-11-19T01:21:06;3.55;;;2.92;;
80411;SDS011;69749;42.684;23.360;2023-11-19T01:23:31;3.40;;;3.10;;
80411;SDS011;69749;42.684;23.360;2023-11-19T01:25:57;3.35;;;2.78;;
80411;SDS011;69749;42.684;23.360;2023-11-19T01:28:23;3.17;;;2.88;;
80411;SDS011;69749;42.684;23.360;2023-11-19T01:30:52;4.07;;;2.80;;
80411;SDS011;69749;42.684;23.360;2023-11-19T01:33:17;4.18;;;3.00;;
80411;SDS011;69749;42.684;23.360;2023-11-19T01:35:43;3.20;;;2.85;;
80411;SDS011;69749;42.684;23.360;2023-11-19T01:38:08;3.67;;;2.60;;
80411;SDS011;69749;42.684;23.360;2023-11-19T01:40:37;3.35;;;2.50;;
80411;SDS011;69749;42.684;23.360;2023-11-19T01:43:03;3.58;;;2.80;;
80411;SDS011;69749;42.684;23.360;2023-11-19T01:45:29;5.35;;;3.35;;
80411;SDS011;69749;42.684;23.360;2023-11-19T01:47:56;3.03;;;2.72;;
80411;SDS011;69749;42.684;23.360;2023-11-19T01:50:23;3.90;;;2.90;;
80411;SDS011;69749;42.684;23.360;2023-11-19T01:52:50;2.45;;;2.25;;
80411;SDS011;69749;42.684;23.360;2023-11-19T01:55:18;2.45;;;2.25;;
80411;SDS011;69749;42.684;23.360;2023-11-19T01:57:45;5.20;;;2.45;;
80411;SDS011;69749;42.684;23.360;2023-11-19T02:00:14;4.43;;;2.40;;
80411;SDS011;69749;42.684;23.360;2023-11-19T02:02:41;2.70;;;2.35;;
80411;SDS011;69749;42.684;23.360;2023-11-19T02:05:08;2.42;;;2.22;;
80411;SDS011;69749;42.684;23.360;2023-11-19T02:07:34;2.85;;;2.58;;
80411;SDS011;69749;42.684;23.360;2023-11-19T02:09:59;2.88;;;2.03;;
80411;SDS011;69749;42.684;23.360;2023-11-19T02:12:27;3.08;;;2.28;;
80411;SDS011;69749;42.684;23.360;2023-11-19T02:14:53;2.53;;;2.33;;
80411;SDS011;69749;42.684;23.360;2023-11-19T02:17:26;3.05;;;2.53;;
80411;SDS011;69749;42.684;23.360;2023-11-19T02:19:52;3.25;;;2.95;;
80411;SDS011;69749;42.684;23.360;2023-11-19T02:22:18;2.30;;;2.03;;
80411;SDS011;69749;42.684;23.360;2023-11-19T02:24:44;2.50;;;2.30;;
80411;SDS011;69749;42.684;23.360;2023-11-19T02:29:41;2.65;;;2.45;;
80411;SDS011;69749;42.684;23.360;2023-11-19T02:32:07;2.97;;;2.50;;
80411;SDS011;69749;42.684;23.360;2023-11-19T02:34:34;3.10;;;2.75;;
80411;SDS011;69749;42.684;23.360;2023-11-19T02:37:00;3.72;;;2.47;;
80411;SDS011;69749;42.684;23.360;2023-11-19T02:39:25;2.90;;;2.70;;
80411;SDS011;69749;42.684;23.360;2023-11-19T02:41:51;2.58;;;2.38;;
80411;SDS011;69749;42.684;23.360;2023-11-19T02:44:18;2.55;;;1.98;;
80411;SDS011;69749;42.684;23.360;2023-11-19T02:46:43;3.92;;;2.50;;
80411;SDS011;69749;42.684;23.360;2023-11-19T02:49:09;3.30;;;2.22;;
80411;SDS011;69749;42.684;23.360;2023-11-19T02:51:34;2.83;;;2.53;;
80411;SDS011;69749;42.684;23.360;2023-11-19T02:54:00;2.85;;;2.53;;
80411;SDS011;69749;42.684;23.360;2023-11-19T02:56:25;2.63;;;2.40;;
80411;SDS011;69749;42.684;23.360;2023-11-19T02:58:51;3.03;;;2.50;;
80411;SDS011;69749;42.684;23.360;2023-11-19T03:01:24;2.67;;;2.47;;
80411;SDS011;69749;42.684;23.360;2023-11-19T03:03:59;2.58;;;2.38;;
80411;SDS011;69749;42.684;23.360;2023-11-19T03:06:27;3.58;;;2.70;;
80411;SDS011;69749;42.684;23.360;2023-11-19T03:08:54;3.15;;;2.60;;
80411;SDS011;69749;42.684;23.360;2023-11-19T03:11:20;3.60;;;3.03;;
80411;SDS011;69749;42.684;23.360;2023-11-19T03:13:46;3.08;;;2.78;;
80411;SDS011;69749;42.684;23.360;2023-11-19T03:16:12;2.60;;;2.40;;
80411;SDS011;69749;42.684;23.360;2023-11-19T03:18:37;3.13;;;2.80;;
80411;SDS011;69749;42.684;23.360;2023-11-19T03:21:04;5.25;;;2.45;;
80411;SDS011;69749;42.684;23.360;2023-11-19T03:23:31;3.10;;;2.70;;
80411;SDS011;69749;42.684;23.360;2023-11-19T03:25:56;2.58;;;2.38;;
80411;SDS011;69749;42.684;23.360;2023-11-19T03:28:40;3.47;;;2.63;;
80411;SDS011;69749;42.684;23.360;2023-11-19T03:31:06;3.55;;;2.50;;
80411;SDS011;69749;42.684;23.360;2023-11-19T03:33:34;2.90;;;2.60;;
80411;SDS011;69749;42.684;23.360;2023-11-19T03:35:59;2.80;;;2.60;;
80411;SDS011;69749;42.684;23.360;2023-11-19T03:38:25;3.65;;;2.70;;
80411;SDS011;69749;42.684;23.360;2023-11-19T03:40:50;3.90;;;2.88;;
80411;SDS011;69749;42.684;23.360;2023-11-19T03:43:16;3.00;;;2.67;;
80411;SDS011;69749;42.684;23.360;2023-11-19T03:45:41;3.72;;;3.00;;
80411;SDS011;69749;42.684;23.360;2023-11-19T03:48:07;2.90;;;2.60;;
80411;SDS011;69749;42.684;23.360;2023-11-19T03:50:32;3.10;;;2.80;;
80411;SDS011;69749;42.684;23.360;2023-11-19T03:52:58;3.63;;;2.45;;
80411;SDS011;69749;42.684;23.360;2023-11-19T03:55:24;3.58;;;2.45;;
80411;SDS011;69749;42.684;23.360;2023-11-19T03:57:49;3.58;;;2.92;;
80411;SDS011;69749;42.684;23.360;2023-11-19T04:00:15;2.35;;;2.15;;
80411;SDS011;69749;42.684;23.360;2023-11-19T04:02:41;2.92;;;2.50;;
80411;SDS011;69749;42.684;23.360;2023-11-19T04:05:06;3.42;;;2.83;;
80411;SDS011;69749;42.684;23.360;2023-11-19T04:07:32;3.53;;;2.85;;
80411;SDS011;69749;42.684;23.360;2023-11-19T04:09:58;3.80;;;2.40;;
80411;SDS011;69749;42.684;23.360;2023-11-19T04:12:24;2.60;;;2.40;;
80411;SDS011;69749;42.684;23.360;2023-11-19T04:14:50;3.38;;;2.35;;
80411;SDS011;69749;42.684;23.360;2023-11-19T04:17:15;3.85;;;2.90;;
80411;SDS011;69749;42.684;23.360;2023-11-19T04:19:41;3.08;;;2.60;;
80411;SDS011;69749;42.684;23.360;2023-11-19T04:22:09;2.78;;;2.40;;
80411;SDS011;69749;42.684;23.360;2023-11-19T04:24:36;3.10;;;2.63;;
80411;SDS011;69749;42.684;23.360;2023-11-19T04:27:01;2.80;;;2.20;;
80411;SDS011;69749;42.684;23.360;2023-11-19T04:29:29;3.05;;;2.35;;
80411;SDS011;69749;42.684;23.360;2023-11-19T04:31:55;3.15;;;2.72;;
80411;SDS011;69749;42.684;23.360;2023-11-19T04:34:21;3.15;;;2.47;;
80411;SDS011;69749;42.684;23.360;2023-11-19T04:36:46;2.50;;;2.25;;
80411;SDS011;69749;42.684;23.360;2023-11-19T04:39:12;3.25;;;2.60;;
80411;SDS011;69749;42.684;23.360;2023-11-19T04:41:49;3.65;;;3.05;;
80411;SDS011;69749;42.684;23.360;2023-11-19T04:44:16;2.75;;;2.53;;
80411;SDS011;69749;42.684;23.360;2023-11-19T04:46:42;4.00;;;2.90;;
80411;SDS011;69749;42.684;23.360;2023-11-19T04:49:09;3.22;;;2.80;;
80411;SDS011;69749;42.684;23.360;2023-11-19T04:51:39;4.25;;;2.80;;
80411;SDS011;69749;42.684;23.360;2023-11-19T04:54:11;3.80;;;3.10;;
80411;SDS011;69749;42.684;23.360;2023-11-19T04:56:36;2.50;;;2.30;;
80411;SDS011;69749;42.684;23.360;2023-11-19T04:59:02;5.30;;;3.00;;
80411;SDS011;69749;42.684;23.360;2023-11-19T05:01:28;3.22;;;2.75;;
80411;SDS011;69749;42.684;23.360;2023-11-19T05:03:54;3.65;;;3.00;;
80411;SDS011;69749;42.684;23.360;2023-11-19T05:06:22;4.22;;;3.00;;
80411;SDS011;69749;42.684;23.360;2023-11-19T05:08:47;3.08;;;2.70;;
80411;SDS011;69749;42.684;23.360;2023-11-19T05:11:13;3.20;;;2.72;;
80411;SDS011;69749;42.684;23.360;2023-11-19T05:13:42;3.03;;;2.55;;
80411;SDS011;69749;42.684;23.360;2023-11-19T05:16:10;3.22;;;2.92;;
80411;SDS011;69749;42.684;23.360;2023-11-19T05:18:35;3.70;;;2.90;;
80411;SDS011;69749;42.684;23.360;2023-11-19T05:21:01;3.65;;;3.10;;
80411;SDS011;69749;42.684;23.360;2023-11-19T05:23:26;5.15;;;3.50;;
80411;SDS011;69749;42.684;23.360;2023-11-19T05:25:52;4.38;;;3.47;;
80411;SDS011;69749;42.684;23.360;2023-11-19T05:28:17;3.88;;;2.85;;
80411;SDS011;69749;42.684;23.360;2023-11-19T05:30:42;4.78;;;3.47;;
80411;SDS011;69749;42.684;23.360;2023-11-19T05:33:08;3.72;;;2.90;;
80411;SDS011;69749;42.684;23.360;2023-11-19T05:35:34;3.97;;;3.13;;
80411;SDS011;69749;42.684;23.360;2023-11-19T05:37:59;5.32;;;3.13;;
80411;SDS011;69749;42.684;23.360;2023-11-19T05:42:53;3.83;;;2.53;;
80411;SDS011;69749;42.684;23.360;2023-11-19T05:45:18;4.38;;;2.92;;
80411;SDS011;69749;42.684;23.360;2023-11-19T05:47:44;3.58;;;2.80;;
80411;SDS011;69749;42.684;23.360;2023-11-19T05:50:09;4.80;;;3.53;;
80411;SDS011;69749;42.684;23.360;2023-11-19T05:52:35;3.90;;;3.00;;
80411;SDS011;69749;42.684;23.360;2023-11-19T05:55:01;3.08;;;2.75;;
80411;SDS011;69749;42.684;23.360;2023-11-19T05:57:29;6.57;;;2.95;;
80411;SDS011;69749;42.684;23.360;2023-11-19T05:59:55;4.03;;;2.85;;
80411;SDS011;69749;42.684;23.360;2023-11-19T06:02:20;4.18;;;3.00;;
80411;SDS011;69749;42.684;23.360;2023-11-19T06:04:46;3.22;;;2.90;;
80411;SDS011;69749;42.684;23.360;2023-11-19T06:07:13;3.55;;;2.85;;
80411;SDS011;69749;42.684;23.360;2023-11-19T06:09:40;3.10;;;2.80;;
80411;SDS011;69749;42.684;23.360;2023-11-19T06:12:06;3.55;;;2.90;;
80411;SDS011;69749;42.684;23.360;2023-11-19T06:14:32;4.28;;;2.65;;
80411;SDS011;69749;42.684;23.360;2023-11-19T06:16:58;4.75;;;2.92;;
80411;SDS011;69749;42.684;23.360;2023-11-19T06:19:23;4.43;;;2.83;;
80411;SDS011;69749;42.684;23.360;2023-11-19T06:21:50;3.55;;;2.70;;
80411;SDS011;69749;42.684;23.360;2023-11-19T06:24:15;4.90;;;3.15;;
80411;SDS011;69749;42.684;23.360;2023-11-19T06:26:41;4.03;;;3.45;;
80411;SDS011;69749;42.684;23.360;2023-11-19T06:29:07;4.05;;;3.13;;
80411;SDS011;69749;42.684;23.360;2023-11-19T06:31:32;3.70;;;3.08;;
80411;SDS011;69749;42.684;23.360;2023-11-19T06:33:58;3.97;;;3.53;;
80411;SDS011;69749;42.684;23.360;2023-11-19T06:36:24;3.78;;;2.75;;
80411;SDS011;69749;42.684;23.360;2023-11-19T06:38:49;5.20;;;3.20;;
80411;SDS011;69749;42.684;23.360;2023-11-19T06:41:14;4.20;;;3.70;;
80411;SDS011;69749;42.684;23.360;2023-11-19T06:43:40;3.38;;;3.08;;
80411;SDS011;69749;42.684;23.360;2023-11-19T06:46:05;4.55;;;2.95;;
80411;SDS011;69749;42.684;23.360;2023-11-19T06:48:39;3.72;;;2.67;;
80411;SDS011;69749;42.684;23.360;2023-11-19T06:51:05;3.83;;;2.80;;
80411;SDS011;69749;42.684;23.360;2023-11-19T06:53:30;2.65;;;2.45;;
80411;SDS011;69749;42.684;23.360;2023-11-19T06:55:56;3.72;;;2.90;;
80411;SDS011;69749;42.684;23.360;2023-11-19T06:58:22;3.65;;;3.28;;
80411;SDS011;69749;42.684;23.360;2023-11-19T07:00:47;6.35;;;3.30;;
80411;SDS011;69749;42.684;23.360;2023-11-19T07:03:14;3.58;;;2.75;;
80411;SDS011;69749;42.684;23.360;2023-11-19T07:05:41;4.53;;;4.00;;
80411;SDS011;69749;42.684;23.360;2023-11-19T07:08:06;3.05;;;2.65;;
80411;SDS011;69749;42.684;23.360;2023-11-19T07:10:35;4.82;;;2.95;;
80411;SDS011;69749;42.684;23.360;2023-11-19T07:13:00;3.88;;;3.40;;
80411;SDS011;69749;42.684;23.360;2023-11-19T07:15:26;3.60;;;2.85;;
80411;SDS011;69749;42.684;23.360;2023-11-19T07:17:51;8.40;;;3.40;;
80411;SDS011;69749;42.684;23.360;2023-11-19T07:20:19;3.00;;;2.70;;
80411;SDS011;69749;42.684;23.360;2023-11-19T07:22:44;4.65;;;3.45;;
80411;SDS011;69749;42.684;23.360;2023-11-19T07:25:12;4.68;;;3.65;;
80411;SDS011;69749;42.684;23.360;2023-11-19T07:30:04;4.18;;;3.17;;
80411;SDS011;69749;42.684;23.360;2023-11-19T07:32:32;3.80;;;3.40;;
80411;SDS011;69749;42.684;23.360;2023-11-19T07:34:58;6.10;;;3.53;;
80411;SDS011;69749;42.684;23.360;2023-11-19T07:37:23;3.97;;;3.13;;
80411;SDS011;69749;42.684;23.360;2023-11-19T07:39:49;3.53;;;3.20;;
80411;SDS011;69749;42.684;23.360;2023-11-19T07:42:14;5.70;;;3.78;;
80411;SDS011;69749;42.684;23.360;2023-11-19T07:44:40;6.00;;;3.72;;
80411;SDS011;69749;42.684;23.360;2023-11-19T07:47:06;4.57;;;3.42;;
80411;SDS011;69749;42.684;23.360;2023-11-19T07:49:32;3.35;;;2.70;;
80411;SDS011;69749;42.684;23.360;2023-11-19T07:51:57;3.92;;;3.03;;
80411;SDS011;69749;42.684;23.360;2023-11-19T07:54:23;3.08;;;2.80;;
80411;SDS011;69749;42.684;23.360;2023-11-19T07:56:49;4.38;;;3.08;;
80411;SDS011;69749;42.684;23.360;2023-11-19T07:59:15;3.92;;;3.22;;
80411;SDS011;69749;42.684;23.360;2023-11-19T08:01:41;3.83;;;3.50;;
80411;SDS011;69749;42.684;23.360;2023-11-19T08:04:06;5.43;;;3.78;;
80411;SDS011;69749;42.684;23.360;2023-11-19T08:06:32;4.15;;;3.13;;
80411;SDS011;69749;42.684;23.360;2023-11-19T08:08:57;4.30;;;3.22;;
80411;SDS011;69749;42.684;23.360;2023-11-19T08:11:23;4.82;;;3.88;;
80411;SDS011;69749;42.684;23.360;2023-11-19T08:13:49;3.90;;;3.30;;
80411;SDS011;69749;42.684;23.360;2023-11-19T08:16:14;4.72;;;3.42;;
80411;SDS011;69749;42.684;23.360;2023-11-19T08:18:43;5.38;;;2.90;;
80411;SDS011;69749;42.684;23.360;2023-11-19T08:21:09;3.35;;;2.90;;
80411;SDS011;69749;42.684;23.360;2023-11-19T08:23:35;3.50;;;3.20;;
80411;SDS011;69749;42.684;23.360;2023-11-19T08:26:01;4.55;;;3.30;;
80411;SDS011;69749;42.684;23.360;2023-11-19T08:28:26;3.80;;;2.65;;
80411;SDS011;69749;42.684;23.360;2023-11-19T08:30:52;4.20;;;2.88;;
80411;SDS011;69749;42.684;23.360;2023-11-19T08:33:18;4.32;;;3.50;;
80411;SDS011;69749;42.684;23.360;2023-11-19T08:35:43;4.28;;;3.45;;
80411;SDS011;69749;42.684;23.360;2023-11-19T08:38:10;4.75;;;3.38;;
80411;SDS011;69749;42.684;23.360;2023-11-19T08:40:36;3.88;;;3.22;;
80411;SDS011;69749;42.684;23.360;2023-11-19T08:43:01;3.75;;;3.20;;
80411;SDS011;69749;42.684;23.360;2023-11-19T08:45:27;4.20;;;3.33;;
80411;SDS011;69749;42.684;23.360;2023-11-19T08:47:52;5.07;;;3.97;;
80411;SDS011;69749;42.684;23.360;2023-11-19T08:50:18;5.25;;;4.15;;
80411;SDS011;69749;42.684;23.360;2023-11-19T08:53:01;4.22;;;3.80;;
80411;SDS011;69749;42.684;23.360;2023-11-19T08:55:27;4.07;;;3.30;;
80411;SDS011;69749;42.684;23.360;2023-11-19T08:57:52;4.30;;;3.63;;
80411;SDS011;69749;42.684;23.360;2023-11-19T09:00:18;4.20;;;3.15;;
80411;SDS011;69749;42.684;23.360;2023-11-19T09:02:43;5.05;;;3.40;;
80411;SDS011;69749;42.684;23.360;2023-11-19T09:05:09;4.45;;;3.50;;
80411;SDS011;69749;42.684;23.360;2023-11-19T09:07:34;3.95;;;3.47;;
80411;SDS011;69749;42.684;23.360;2023-11-19T09:10:00;4.28;;;3.40;;
80411;SDS011;69749;42.684;23.360;2023-11-19T09:12:25;8.77;;;4.53;;
80411;SDS011;69749;42.684;23.360;2023-11-19T09:14:51;4.60;;;3.17;;
80411;SDS011;69749;42.684;23.360;2023-11-19T09:17:16;6.55;;;4.93;;
80411;SDS011;69749;42.684;23.360;2023-11-19T09:19:43;5.38;;;3.83;;
80411;SDS011;69749;42.684;23.360;2023-11-19T09:22:08;5.97;;;3.70;;
80411;SDS011;69749;42.684;23.360;2023-11-19T09:24:34;4.22;;;3.83;;
80411;SDS011;69749;42.684;23.360;2023-11-19T09:26:59;4.38;;;3.40;;
80411;SDS011;69749;42.684;23.360;2023-11-19T09:29:25;3.83;;;3.08;;
80411;SDS011;69749;42.684;23.360;2023-11-19T09:31:50;4.47;;;3.53;;
80411;SDS011;69749;42.684;23.360;2023-11-19T09:34:16;5.00;;;3.78;;
80411;SDS011;69749;42.684;23.360;2023-11-19T09:36:42;4.25;;;3.53;;
80411;SDS011;69749;42.684;23.360;2023-11-19T09:39:09;3.88;;;3.47;;
80411;SDS011;69749;42.684;23.360;2023-11-19T09:41:35;5.03;;;3.47;;
80411;SDS011;69749;42.684;23.360;2023-11-19T09:44:01;4.63;;;3.30;;
80411;SDS011;69749;42.684;23.360;2023-11-19T09:46:26;3.67;;;3.08;;
80411;SDS011;69749;42.684;23.360;2023-11-19T09:48:54;5.07;;;2.85;;
80411;SDS011;69749;42.684;23.360;2023-11-19T09:51:21;3.97;;;3.05;;
80411;SDS011;69749;42.684;23.360;2023-11-19T09:53:49;5.65;;;3.15;;
80411;SDS011;69749;42.684;23.360;2023-11-19T09:56:15;4.57;;;3.25;;
80411;SDS011;69749;42.684;23.360;2023-11-19T09:58:43;4.03;;;3.42;;
80411;SDS011;69749;42.684;23.360;2023-11-19T10:01:09;5.15;;;2.97;;
80411;SDS011;69749;42.684;23.360;2023-11-19T10:03:37;5.07;;;3.20;;
80411;SDS011;69749;42.684;23.360;2023-11-19T10:08:33;3.40;;;2.65;;
80411;SDS011;69749;42.684;23.360;2023-11-19T10:10:59;4.45;;;2.92;;
80411;SDS011;69749;42.684;23.360;2023-11-19T10:13:28;4.78;;;3.22;;
80411;SDS011;69749;42.684;23.360;2023-11-19T10:15:55;4.22;;;3.05;;
80411;SDS011;69749;42.684;23.360;2023-11-19T10:18:25;5.00;;;2.90;;
80411;SDS011;69749;42.684;23.360;2023-11-19T10:20:51;9.23;;;4.97;;
80411;SDS011;69749;42.684;23.360;2023-11-19T10:23:17;7.30;;;4.93;;
80411;SDS011;69749;42.684;23.360;2023-11-19T10:25:42;4.88;;;3.60;;
80411;SDS011;69749;42.684;23.360;2023-11-19T10:28:08;3.50;;;3.00;;
80411;SDS011;69749;42.684;23.360;2023-11-19T10:30:33;4.18;;;3.58;;
80411;SDS011;69749;42.684;23.360;2023-11-19T10:33:09;3.95;;;3.55;;
80411;SDS011;69749;42.684;23.360;2023-11-19T10:35:35;5.60;;;3.28;;
80411;SDS011;69749;42.684;23.360;2023-11-19T10:38:18;4.53;;;2.67;;
80411;SDS011;69749;42.684;23.360;2023-11-19T10:40:43;6.47;;;3.33;;
80411;SDS011;69749;42.684;23.360;2023-11-19T10:43:09;3.00;;;2.60;;
80411;SDS011;69749;42.684;23.360;2023-11-19T10:45:35;3.95;;;2.78;;
80411;SDS011;69749;42.684;23.360;2023-11-19T10:48:02;3.53;;;3.22;;
80411;SDS011;69749;42.684;23.360;2023-11-19T10:50:38;3.50;;;3.17;;
80411;SDS011;69749;42.684;23.360;2023-11-19T10:53:05;2.95;;;2.58;;
80411;SDS011;69749;42.684;23.360;2023-11-19T10:55:36;3.72;;;3.17;;
80411;SDS011;69749;42.684;23.360;2023-11-19T10:58:06;4.63;;;2.70;;
80411;SDS011;69749;42.684;23.360;2023-11-19T11:00:34;4.05;;;2.90;;
80411;SDS011;69749;42.684;23.360;2023-11-19T11:03:20;3.53;;;3.13;;
80411;SDS011;69749;42.684;23.360;2023-11-19T11:05:50;3.22;;;2.70;;
80411;SDS011;69749;42.684;23.360;2023-11-19T11:10:53;4.50;;;2.80;;
80411;SDS011;69749;42.684;23.360;2023-11-19T11:13:19;2.85;;;2.50;;
80411;SDS011;69749;42.684;23.360;2023-11-19T11:15:48;3.67;;;2.70;;
80411;SDS011;69749;42.684;23.360;2023-11-19T11:18:15;3.58;;;2.83;;
80411;SDS011;69749;42.684;23.360;2023-11-19T11:20:42;4.28;;;3.15;;
80411;SDS011;69749;42.684;23.360;2023-11-19T11:35:21;3.00;;;2.42;;
80411;SDS011;69749;42.684;23.360;2023-11-19T11:38:03;2.83;;;2.33;;
80411;SDS011;69749;42.684;23.360;2023-11-19T11:40:31;2.22;;;2.03;;
80411;SDS011;69749;42.684;23.360;2023-11-19T11:42:57;3.05;;;2.75;;
80411;SDS011;69749;42.684;23.360;2023-11-19T11:45:34;3.03;;;2.63;;
80411;SDS011;69749;42.684;23.360;2023-11-19T11:50:47;2.75;;;2.08;;
80411;SDS011;69749;42.684;23.360;2023-11-19T11:53:18;3.72;;;2.58;;
80411;SDS011;69749;42.684;23.360;2023-11-19T11:58:13;3.15;;;2.72;;
80411;SDS011;69749;42.684;23.360;2023-11-19T12:00:42;3.50;;;3.10;;
80411;SDS011;69749;42.684;23.360;2023-11-19T12:03:08;4.07;;;3.30;;
80411;SDS011;69749;42.684;23.360;2023-11-19T12:05:44;4.78;;;3.08;;
80411;SDS011;69749;42.684;23.360;2023-11-19T12:08:11;4.75;;;2.95;;
80411;SDS011;69749;42.684;23.360;2023-11-19T12:13:19;4.25;;;2.75;;
80411;SDS011;69749;42.684;23.360;2023-11-19T12:20:49;3.88;;;2.75;;
80411;SDS011;69749;42.684;23.360;2023-11-19T12:23:15;4.18;;;2.72;;
80411;SDS011;69749;42.684;23.360;2023-11-19T12:25:40;10.07;;;4.03;;
80411;SDS011;69749;42.684;23.360;2023-11-19T12:28:11;7.70;;;5.05;;
80411;SDS011;69749;42.684;23.360;2023-11-19T12:30:37;5.15;;;3.63;;
80411;SDS011;69749;42.684;23.360;2023-11-19T12:33:07;5.38;;;3.05;;
80411;SDS011;69749;42.684;23.360;2023-11-19T12:35:34;4.07;;;2.95;;
80411;SDS011;69749;42.684;23.360;2023-11-19T12:38:07;6.90;;;3.80;;
80411;SDS011;69749;42.684;23.360;2023-11-19T12:40:43;4.22;;;2.72;;
80411;SDS011;69749;42.684;23.360;2023-11-19T12:43:08;3.65;;;2.70;;
80411;SDS011;69749;42.684;23.360;2023-11-19T12:45:34;3.83;;;3.30;;
80411;SDS011;69749;42.684;23.360;2023-11-19T12:48:06;2.75;;;2.55;;
80411;SDS011;69749;42.684;23.360;2023-11-19T12:50:56;7.03;;;2.97;;
80411;SDS011;69749;42.684;23.360;2023-11-19T12:53:23;3.45;;;2.92;;
80411;SDS011;69749;42.684;23.360;2023-11-19T12:55:49;6.20;;;3.13;;
80411;SDS011;69749;42.684;23.360;2023-11-19T12:58:31;4.85;;;3.15;;
80411;SDS011;69749;42.684;23.360;2023-11-19T13:03:35;4.82;;;3.55;;
80411;SDS011;69749;42.684;23.360;2023-11-19T13:06:04;3.97;;;3.40;;
80411;SDS011;69749;42.684;23.360;2023-11-19T13:08:36;5.68;;;3.03;;
80411;SDS011;69749;42.684;23.360;2023-11-19T13:11:09;4.97;;;3.20;;
80411;SDS011;69749;42.684;23.360;2023-11-19T13:13:57;5.65;;;3.47;;
80411;SDS011;69749;42.684;23.360;2023-11-19T13:16:30;5.25;;;3.10;;
80411;SDS011;69749;42.684;23.360;2023-11-19T13:18:56;4.20;;;3.38;;
80411;SDS011;69749;42.684;23.360;2023-11-19T13:21:23;4.28;;;3.88;;
80411;SDS011;69749;42.684;23.360;2023-11-19T13:23:49;6.05;;;3.97;;
80411;SDS011;69749;42.684;23.360;2023-11-19T13:26:15;3.65;;;2.90;;
80411;SDS011;69749;42.684;23.360;2023-11-19T13:28:40;5.15;;;3.20;;
80411;SDS011;69749;42.684;23.360;2023-11-19T13:31:06;5.65;;;3.15;;
80411;SDS011;69749;42.684;23.360;2023-11-19T13:33:31;5.30;;;3.63;;
80411;SDS011;69749;42.684;23.360;2023-11-19T13:35:57;5.20;;;3.67;;
80411;SDS011;69749;42.684;23.360;2023-11-19T13:38:22;6.18;;;3.60;;
80411;SDS011;69749;42.684;23.360;2023-11-19T13:40:49;4.22;;;3.45;;
80411;SDS011;69749;42.684;23.360;2023-11-19T13:43:14;5.40;;;3.80;;
80411;SDS011;69749;42.684;23.360;2023-11-19T13:45:40;5.35;;;3.53;;
80411;SDS011;69749;42.684;23.360;2023-11-19T13:48:05;6.75;;;4.05;;
80411;SDS011;69749;42.684;23.360;2023-11-19T13:50:31;4.22;;;3.83;;
80411;SDS011;69749;42.684;23.360;2023-11-19T13:52:57;7.72;;;4.25;;
80411;SDS011;69749;42.684;23.360;2023-11-19T13:55:22;5.47;;;3.47;;
80411;SDS011;69749;42.684;23.360;2023-11-19T13:57:48;5.82;;;3.75;;
80411;SDS011;69749;42.684;23.360;2023-11-19T14:00:14;5.55;;;3.55;;
80411;SDS011;69749;42.684;23.360;2023-11-19T14:02:44;4.63;;;3.42;;
80411;SDS011;69749;42.684;23.360;2023-11-19T14:05:24;4.68;;;3.80;;
80411;SDS011;69749;42.684;23.360;2023-11-19T14:07:49;5.50;;;3.35;;
80411;SDS011;69749;42.684;23.360;2023-11-19T14:10:16;4.72;;;3.42;;
80411;SDS011;69749;42.684;23.360;2023-11-19T14:12:42;4.97;;;3.80;;
80411;SDS011;69749;42.684;23.360;2023-11-19T14:15:11;5.35;;;3.45;;
80411;SDS011;69749;42.684;23.360;2023-11-19T14:17:39;4.60;;;3.60;;
80411;SDS011;69749;42.684;23.360;2023-11-19T14:20:05;4.85;;;3.50;;
80411;SDS011;69749;42.684;23.360;2023-11-19T14:22:38;4.07;;;2.90;;
80411;SDS011;69749;42.684;23.360;2023-11-19T14:25:08;5.78;;;3.47;;
80411;SDS011;69749;42.684;23.360;2023-11-19T14:27:38;6.22;;;3.90;;
80411;SDS011;69749;42.684;23.360;2023-11-19T14:30:05;4.28;;;3.38;;
80411;SDS011;69749;42.684;23.360;2023-11-19T14:32:31;4.55;;;3.20;;
80411;SDS011;69749;42.684;23.360;2023-11-19T14:34:57;4.70;;;3.97;;
80411;SDS011;69749;42.684;23.360;2023-11-19T14:37:23;7.63;;;3.67;;
80411;SDS011;69749;42.684;23.360;2023-11-19T14:39:48;6.43;;;3.60;;
80411;SDS011;69749;42.684;23.360;2023-11-19T14:42:15;5.03;;;3.85;;
80411;SDS011;69749;42.684;23.360;2023-11-19T14:44:42;6.40;;;4.20;;
80411;SDS011;69749;42.684;23.360;2023-11-19T14:47:08;4.25;;;3.65;;
80411;SDS011;69749;42.684;23.360;2023-11-19T14:49:37;6.35;;;3.67;;
80411;SDS011;69749;42.684;23.360;2023-11-19T14:52:05;5.85;;;4.05;;
80411;SDS011;69749;42.684;23.360;2023-11-19T14:54:31;7.25;;;4.05;;
80411;SDS011;69749;42.684;23.360;2023-11-19T14:56:57;6.32;;;4.13;;
80411;SDS011;69749;42.684;23.360;2023-11-19T14:59:24;7.35;;;4.70;;
80411;SDS011;69749;42.684;23.360;2023-11-19T15:01:49;4.00;;;3.50;;
80411;SDS011;69749;42.684;23.360;2023-11-19T15:04:15;6.68;;;4.60;;
80411;SDS011;69749;42.684;23.360;2023-11-19T15:06:41;7.43;;;4.93;;
80411;SDS011;69749;42.684;23.360;2023-11-19T15:09:06;7.15;;;4.75;;
80411;SDS011;69749;42.684;23.360;2023-11-19T15:11:32;7.05;;;4.63;;
80411;SDS011;69749;42.684;23.360;2023-11-19T15:13:58;4.97;;;4.03;;